Aviation Digital Data Service (ADDS)

Output produced by METARs form (1449 UTC 21 April 2021)
found at http://www.aviationweather.gov/metar/data/
 
LETO 211430Z 33010KT 300V360 8000 SCT030TCU BKN060 13/09 Q1010 RERA NOSIG
TAF LETO 211100Z 2112/2212 24009KT 9999 SCT030 TX18/2115Z TN08/2206Z 
     PROB30 
     TEMPO 2112/2118 23010G20KT SHRA SCT025TCU 
     PROB30 
     TEMPO 2113/2118 SCT030CB 
     TEMPO 2122/2212 4000 RA SHRA BKN014 SCT025TCU 
     PROB30 
     TEMPO 2210/2212 3000 TSRA SCT025CB
       
LEZG 211430Z 10007KT 050V160 9999 FEW035 18/08 Q1011
TAF LEZG 211100Z 2112/2212 11005KT 9999 SCT020 TX20/2114Z TN11/2206Z 
     BECMG 2118/2120 11015KT 
     PROB40 
     TEMPO 2121/2212 3000 BR RA BKN005
       
LERT 211430Z 26010KT 230V300 9999 FEW030 18/11 Q1014 NOSIG
TAF LERT 211400Z 2115/2215 29008KT 9999 FEW030 TX21/2213Z TN14/2206Z 
     PROB30 
     TEMPO 2204/2209 4000 SHRA SCT025TCU
       
LELC 211430Z 12007KT 080V160 9999 SCT009 18/15 Q1012 NOSIG
TAF LELC 211100Z 2112/2212 13010KT 9999 SCT025 TX20/2113Z TN15/2206Z 
     BECMG 2118/2121 05005KT 
     PROB40 
     TEMPO 2120/2208 BKN012
       
LEAB 211430Z VRB04KT 9999 FEW043 18/07 Q1011 NOSIG
TAF LEAB 211100Z 2112/2212 28009KT 9999 SCT030 TX20/2115Z TN08/2206Z 
     PROB40 
     TEMPO 2115/2212 3000 SHRA RA SCT015 BKN025TCU 
     PROB30 
     TEMPO 2204/2212 3000 TSRA SCT030CB
       
LEBZ 211430Z 25009KT 9999 BKN044 18/10 Q1012
TAF LEBZ 211100Z 2112/2212 27008KT 9999 SCT035 TX20/2115Z TN12/2206Z 
     PROB30 
     TEMPO 2112/2121 4000 RADZ BKN014 
     TEMPO 2121/2202 3000 SHRA SCT025TCU 
     PROB30 
     TEMPO 2121/2202 TS BKN020 SCT025CB
       
LEMO 211430Z 25008KT 160V290 CAVOK 22/10 Q1012 NOSIG
TAF LEMO 211400Z 2115/2215 24009KT 9999 FEW040 TX25/2215Z TN12/2206Z
       
LESA 211430Z VRB06G17KT 9999 SCT037 16/07 Q1010
TAF LESA 211400Z 2115/2215 26008KT 9999 SCT030 TX16/2215Z TN07/2206Z 
     TEMPO 2115/2203 3000 RA SHRA BKN012 SCT025TCU 
     PROB40 
     TEMPO 2203/2210 3000 BR BKN005 
     PROB30 
     TEMPO 2118/2201 TSRA SCT025CB
       
GCLP 211430Z 03024KT 9999 FEW030 23/15 Q1015 NOSIG
TAF GCLP 211400Z 2115/2215 01022KT 9999 SCT025 TX23/2214Z TN17/2207Z 
     PROB30 
     TEMPO 2115/2120 01018G28KT
       
LIED 211355Z 15010KT 9999 FEW020 SCT030 18/12 Q1013 RMK OVC BKN100 VIS MIN 9999 WIND THR35 15009KT WIND THR17 15008KT BLU
TAF LIED 211400Z 2115/2124 14010KT 9999 SCT025 SCT060 
     TEMPO 2118/2124 SCT020
       
LIPR 211420Z 10012KT 9999 FEW060 16/10 Q1017
TAF LIPR 211400Z 2115/2124 08010KT 9999 SCT040 
     BECMG 2116/2118 VRB05KT